createdAt,value
2019-03-21T00:01:22.630Z,102566.92
2019-03-21T00:03:48.960Z,102571.86
2019-03-21T00:06:15.643Z,102560.22
2019-03-21T00:08:40.076Z,102560.73
2019-03-21T00:11:13.129Z,102565.66
2019-03-21T00:13:37.550Z,102567.08
2019-03-21T00:16:03.423Z,102569.53
2019-03-21T00:18:27.824Z,102565.94
2019-03-21T00:20:52.273Z,102565.09
2019-03-21T00:23:16.674Z,102559.13
2019-03-21T00:25:41.175Z,102567.08
2019-03-21T00:28:05.729Z,102563.00
2019-03-21T00:30:30.160Z,102564.16
2019-03-21T00:32:56.427Z,102568.00
2019-03-21T00:35:20.983Z,102564.45
2019-03-21T00:37:45.551Z,102570.60
2019-03-21T00:40:18.911Z,102560.16
2019-03-21T00:42:43.350Z,102557.32
2019-03-21T00:45:10.830Z,102558.55
2019-03-21T00:47:35.288Z,102555.31
2019-03-21T00:49:59.703Z,102558.46
2019-03-21T00:52:24.151Z,102551.25
2019-03-21T00:54:48.556Z,102553.00
2019-03-21T00:57:13.004Z,102551.50
2019-03-21T00:59:37.410Z,102555.50
2019-03-21T01:02:01.867Z,102555.03
2019-03-21T01:04:27.735Z,102553.93
2019-03-21T01:06:52.174Z,102548.84
2019-03-21T01:09:16.731Z,102548.01
2019-03-21T01:11:41.265Z,102540.77
2019-03-21T01:14:05.804Z,102497.27
2019-03-21T01:16:30.250Z,102529.35
2019-03-21T01:18:54.674Z,102530.51
2019-03-21T01:21:19.121Z,102530.06
2019-03-21T01:23:43.533Z,102530.00
2019-03-21T01:26:09.799Z,102526.81
2019-03-21T01:28:34.325Z,102514.94
2019-03-21T01:30:58.743Z,102524.89
2019-03-21T01:33:23.244Z,102524.48
2019-03-21T01:35:47.658Z,102527.14
2019-03-21T01:38:12.106Z,102530.02
2019-03-21T02:32:46.609Z,102496.58
2019-03-21T02:35:11.207Z,102500.03
2019-03-21T02:37:35.616Z,102500.12
2019-03-21T02:40:00.543Z,102500.95
2019-03-21T02:42:25.463Z,102502.38
2019-03-21T02:44:49.998Z,102502.58
2019-03-21T02:47:14.620Z,102498.20
2019-03-21T02:49:39.065Z,102500.09
2019-03-21T02:52:03.474Z,102502.78
2019-03-21T02:54:27.994Z,102501.34
2019-03-21T02:56:53.257Z,102496.61
2019-03-21T02:59:17.679Z,102496.30
2019-03-21T03:01:42.137Z,102501.61
2019-03-21T03:04:06.564Z,102503.19
2019-03-21T03:06:30.985Z,102498.77
2019-03-21T03:08:55.398Z,102502.73
2019-03-21T03:11:22.638Z,102503.52
2019-03-21T03:13:49.702Z,102503.75
2019-03-21T03:16:14.112Z,102504.20
2019-03-21T03:18:38.516Z,102496.53
2019-03-21T03:21:02.955Z,102501.20
2019-03-21T03:23:27.351Z,102502.01
2019-03-21T03:25:51.884Z,102505.16
2019-03-21T03:28:37.633Z,102510.70
2019-03-21T03:31:02.048Z,102506.36
2019-03-21T03:33:26.981Z,102502.66
2019-03-21T03:35:51.495Z,102506.99
2019-03-21T03:38:15.918Z,102502.55
2019-03-21T03:40:55.397Z,102506.25
2019-03-21T03:43:19.915Z,102503.11
2019-03-21T03:45:44.961Z,102500.33
2019-03-21T03:48:09.448Z,102504.23
2019-03-21T03:50:33.931Z,102504.05
2019-03-21T03:52:59.202Z,102506.64
2019-03-21T03:55:23.713Z,102507.25
2019-03-21T03:57:51.015Z,102508.05
2019-03-21T04:00:22.764Z,102505.09
2019-03-21T04:02:49.166Z,102506.88
2019-03-21T04:05:14.596Z,102504.27
2019-03-21T04:07:39.518Z,102507.39
2019-03-21T04:10:05.975Z,102503.49
2019-03-21T04:12:30.835Z,102502.87
2019-03-21T04:14:55.234Z,102508.83
2019-03-21T04:17:19.668Z,102508.58
2019-03-21T04:19:44.092Z,102511.20
2019-03-21T04:22:08.591Z,102507.84
2019-03-21T04:24:33.071Z,102504.45
2019-03-21T04:26:57.559Z,102510.03
2019-03-21T04:29:21.971Z,102510.25
2019-03-21T04:31:46.426Z,102511.20
2019-03-21T04:34:11.212Z,102511.48
2019-03-21T04:36:37.261Z,102509.55
2019-03-21T04:39:01.684Z,102506.77
2019-03-21T04:41:26.106Z,102506.83
2019-03-21T04:43:50.530Z,102512.35
2019-03-21T04:46:14.943Z,102508.52
2019-03-21T04:48:39.523Z,102510.44
2019-03-21T04:51:04.011Z,102510.06
2019-03-21T04:53:28.441Z,102506.80
2019-03-21T04:55:53.157Z,102475.45
2019-03-21T04:58:17.594Z,102515.36
2019-03-21T05:00:43.744Z,102518.98
2019-03-21T05:03:13.949Z,102517.87
2019-03-21T05:05:38.421Z,102524.06
2019-03-21T05:08:03.012Z,102524.36
2019-03-21T05:10:27.424Z,102519.73
2019-03-21T05:12:52.224Z,102521.87
2019-03-21T05:15:19.930Z,102518.85
2019-03-21T05:17:44.792Z,102516.83
2019-03-21T05:20:15.114Z,102511.66
2019-03-21T05:22:39.612Z,102515.22
2019-03-21T05:25:06.006Z,102519.48
2019-03-21T05:27:30.440Z,102518.87
2019-03-21T05:29:54.852Z,102522.97
2019-03-21T05:32:19.290Z,102520.99
2019-03-21T05:34:43.767Z,102523.62
2019-03-21T05:37:08.183Z,102513.25
2019-03-21T05:39:32.704Z,102520.22
2019-03-21T05:41:57.126Z,102519.36
2019-03-21T05:44:24.598Z,102527.02
2019-03-21T05:46:50.528Z,102525.78
2019-03-21T05:49:14.969Z,102531.70
2019-03-21T05:51:39.377Z,102529.77
2019-03-21T05:54:03.870Z,102528.09
2019-03-21T05:56:28.278Z,102528.89
2019-03-21T05:58:52.713Z,102529.36
2019-03-21T06:01:17.142Z,102527.94
2019-03-21T06:03:46.853Z,102527.17
2019-03-21T06:06:16.869Z,102526.22
2019-03-21T06:08:41.955Z,102533.24
2019-03-21T06:11:06.490Z,102530.08
2019-03-21T06:13:30.935Z,102530.57
2019-03-21T06:15:56.916Z,102535.29
2019-03-21T06:18:26.983Z,102533.97
2019-03-21T06:21:00.438Z,102532.42
2019-03-21T06:23:44.423Z,102532.89
2019-03-21T06:26:23.497Z,102534.77
2019-03-21T06:28:47.938Z,102543.03
2019-03-21T06:31:12.372Z,102536.60
2019-03-21T06:33:36.798Z,102542.23
2019-03-21T06:36:01.224Z,102544.17
2019-03-21T06:38:25.634Z,102544.23
2019-03-21T06:40:50.078Z,102549.36
2019-03-21T06:43:14.579Z,102542.77
2019-03-21T06:45:47.495Z,102542.59
2019-03-21T06:48:05.292Z,102546.41
2019-03-21T06:50:29.728Z,102552.51
2019-03-21T06:52:54.159Z,102546.07
2019-03-21T06:55:18.594Z,102550.12
2019-03-21T06:57:43.002Z,102548.02
2019-03-21T07:00:09.589Z,102545.77
2019-03-21T07:02:33.991Z,102553.27
2019-03-21T07:04:58.425Z,102550.27
2019-03-21T07:07:22.837Z,102539.34
2019-03-21T07:09:47.320Z,102547.98
2019-03-21T07:12:11.815Z,102547.59
2019-03-21T07:14:36.320Z,102548.85
2019-03-21T07:17:00.974Z,102548.14
2019-03-21T07:19:25.677Z,102546.66
2019-03-21T07:21:50.098Z,102554.41
2019-03-21T07:24:14.515Z,102547.99
2019-03-21T07:26:38.958Z,102547.12
2019-03-21T07:29:03.370Z,102544.67
2019-03-21T07:31:29.452Z,102540.77
2019-03-21T07:33:58.380Z,102543.55
2019-03-21T07:36:26.337Z,102547.99
2019-03-21T07:38:54.981Z,102551.11
2019-03-21T07:41:22.262Z,102544.47
2019-03-21T07:43:49.550Z,102545.61
2019-03-21T07:46:14.894Z,102548.41
2019-03-21T07:48:39.437Z,102551.04
2019-03-21T07:51:03.866Z,102554.55
2019-03-21T07:53:28.453Z,102550.41
2019-03-21T07:55:53.036Z,102554.96
2019-03-21T07:58:17.645Z,102558.92
2019-03-21T08:00:42.082Z,102558.73
2019-03-21T08:03:06.504Z,102559.50
2019-03-21T08:05:39.753Z,102558.39
2019-03-21T08:07:57.047Z,102555.01
2019-03-21T08:10:21.518Z,102565.20
2019-03-21T08:12:45.974Z,102563.38
2019-03-21T08:15:17.657Z,102560.74
2019-03-21T08:17:42.230Z,102575.53
2019-03-21T08:20:09.684Z,102575.53
2019-03-21T08:22:34.134Z,102567.73
2019-03-21T08:24:58.546Z,102567.58
2019-03-21T08:27:23.076Z,102566.78
2019-03-21T08:32:10.679Z,102565.78
2019-03-21T08:34:35.102Z,102565.60
2019-03-21T08:36:59.529Z,102562.81
2019-03-21T08:39:24.052Z,102567.02
2019-03-21T08:41:48.450Z,102564.02
2019-03-21T08:44:12.872Z,102565.97
2019-03-21T08:46:37.311Z,102566.38
2019-03-21T08:49:01.886Z,102560.20
2019-03-21T08:51:26.335Z,102560.83
2019-03-21T08:53:50.764Z,102567.00
2019-03-21T08:56:15.169Z,102562.78
2019-03-21T08:58:39.606Z,102573.35
2019-03-21T09:01:04.153Z,102562.98
2019-03-21T09:03:28.597Z,102569.75
2019-03-21T09:05:53.002Z,102569.75
2019-03-21T09:08:17.446Z,102580.76
2019-03-21T09:10:41.876Z,102581.14
2019-03-21T09:13:06.476Z,102577.76
2019-03-21T09:15:30.896Z,102565.39
2019-03-21T09:17:55.592Z,102577.38
2019-03-21T09:20:20.037Z,102576.36
2019-03-21T09:22:44.479Z,102582.32
2019-03-21T09:25:09.255Z,102583.91
2019-03-21T09:27:33.708Z,102587.72
2019-03-21T09:29:58.119Z,102584.52
2019-03-21T09:32:22.874Z,102581.53
2019-03-21T09:34:47.335Z,102581.53
2019-03-21T09:37:11.827Z,102580.50
2019-03-21T09:39:36.254Z,102586.88
2019-03-21T09:42:00.750Z,102588.44
2019-03-21T09:44:26.827Z,102580.71
2019-03-21T09:46:51.753Z,102581.95
2019-03-21T09:49:16.201Z,102572.94
2019-03-21T09:51:40.619Z,102573.97
2019-03-21T09:54:09.788Z,102574.36
2019-03-21T09:56:31.313Z,102575.76
2019-03-21T09:58:55.810Z,102578.55
2019-03-21T10:01:20.361Z,102569.80
2019-03-21T10:03:44.858Z,102574.77
2019-03-21T10:06:09.252Z,102576.58
2019-03-21T10:08:33.693Z,102577.94
2019-03-21T10:10:58.129Z,102585.11
2019-03-21T10:13:22.559Z,102579.53
2019-03-21T10:15:48.483Z,102580.92
2019-03-21T10:18:12.994Z,102584.12
2019-03-21T10:20:37.460Z,102591.11
2019-03-21T10:23:01.950Z,102573.36
2019-03-21T10:25:26.968Z,102578.75
2019-03-21T10:27:51.737Z,102587.89
2019-03-21T10:30:31.013Z,102588.91
2019-03-21T10:32:55.436Z,102588.11
2019-03-21T10:35:22.656Z,102584.30
2019-03-21T10:37:47.075Z,102580.31
2019-03-21T10:40:13.064Z,102590.11
2019-03-21T10:42:37.506Z,102578.70
2019-03-21T10:45:01.933Z,102582.70
2019-03-21T10:47:26.435Z,102586.92
2019-03-21T10:49:50.852Z,102588.72
2019-03-21T10:52:15.275Z,102580.71
2019-03-21T10:54:39.720Z,102587.67
2019-03-21T10:57:04.131Z,102584.09
2019-03-21T10:59:28.566Z,102580.36
2019-03-21T11:01:52.993Z,102583.54
2019-03-21T11:04:17.433Z,102583.12
2019-03-21T11:06:41.844Z,102577.56
2019-03-21T11:09:07.969Z,102574.36
2019-03-21T11:11:32.464Z,102575.91
2019-03-21T11:13:56.913Z,102580.69
2019-03-21T11:16:21.471Z,102578.13
2019-03-21T11:18:45.970Z,102577.51
2019-03-21T11:21:10.502Z,102581.94
2019-03-21T11:23:34.997Z,102576.55
2019-03-21T11:25:59.436Z,102579.17
2019-03-21T11:28:23.857Z,102572.74
2019-03-21T11:30:48.315Z,102578.77
2019-03-21T11:33:12.812Z,102577.95
2019-03-21T11:35:37.337Z,102570.80
2019-03-21T11:38:02.209Z,102561.72
2019-03-21T11:40:26.725Z,102567.36
2019-03-21T11:42:51.128Z,102559.61
2019-03-21T11:45:15.664Z,102562.37
2019-03-21T11:47:42.062Z,102559.11
2019-03-21T11:50:06.837Z,102558.01
2019-03-21T11:52:31.243Z,102568.38
2019-03-21T11:54:55.673Z,102569.56
2019-03-21T11:57:20.175Z,102574.31
2019-03-21T11:59:51.677Z,102569.14
2019-03-21T12:02:10.770Z,102570.83
2019-03-21T12:04:35.235Z,102573.92
2019-03-21T12:06:59.785Z,102576.67
2019-03-21T12:09:24.284Z,102569.49
2019-03-21T12:11:48.809Z,102574.00
2019-03-21T12:14:13.229Z,102571.31
2019-03-21T12:16:37.752Z,102570.52
2019-03-21T12:19:02.189Z,102564.80
2019-03-21T12:21:26.647Z,102554.27
2019-03-21T12:23:51.092Z,102554.64
2019-03-21T12:26:15.549Z,102556.17
2019-03-21T12:28:40.067Z,102549.22
2019-03-21T12:31:04.682Z,102543.10
2019-03-21T12:33:29.126Z,102544.98
2019-03-21T12:35:53.574Z,102548.36
2019-03-21T12:38:18.023Z,102546.79
2019-03-21T12:40:42.629Z,102548.86
2019-03-21T12:43:07.220Z,102544.30
2019-03-21T12:45:31.742Z,102554.20
2019-03-21T12:47:56.229Z,102547.23
2019-03-21T12:50:20.651Z,102547.95
2019-03-21T12:52:45.106Z,102547.02
2019-03-21T12:55:09.772Z,102550.22
2019-03-21T12:57:34.222Z,102547.36
2019-03-21T12:59:58.661Z,102550.32
2019-03-21T13:02:31.925Z,102543.04
2019-03-21T13:04:49.643Z,102546.08
2019-03-21T13:07:14.790Z,102551.66
2019-03-21T13:09:39.642Z,102553.70
2019-03-21T13:12:04.209Z,102540.15
2019-03-21T13:14:28.621Z,102547.67
2019-03-21T13:16:53.060Z,102546.04
2019-03-21T13:19:17.468Z,102543.88
2019-03-21T13:21:41.905Z,102534.69
2019-03-21T13:24:06.352Z,102538.13
2019-03-21T13:26:30.785Z,102527.22
2019-03-21T13:28:55.219Z,102527.21
2019-03-21T13:31:19.641Z,102518.94
2019-03-21T13:33:44.094Z,102516.06
2019-03-21T13:36:08.692Z,102507.69
2019-03-21T13:38:33.142Z,102508.44
2019-03-21T13:40:57.568Z,102507.08
2019-03-21T13:43:22.001Z,102501.52
2019-03-21T13:45:46.422Z,102501.07
2019-03-21T13:48:10.983Z,102500.68
2019-03-21T13:50:35.552Z,102507.05
2019-03-21T13:53:04.815Z,102504.98
2019-03-21T13:55:26.247Z,102499.52
2019-03-21T13:57:50.706Z,102496.44
2019-03-21T14:00:17.918Z,102493.13
2019-03-21T14:02:42.451Z,102489.32
2019-03-21T14:05:08.317Z,102471.73
2019-03-21T14:07:32.861Z,102474.44
2019-03-21T14:09:57.232Z,102464.23
2019-03-21T14:12:21.663Z,102455.09
2019-03-21T14:14:46.102Z,102451.33
2019-03-21T14:17:21.312Z,102441.86
2019-03-21T14:19:36.644Z,102445.95
2019-03-21T14:22:01.075Z,102436.23
2019-03-21T14:24:25.580Z,102433.41
2019-03-21T14:26:49.987Z,102442.17
2019-03-21T14:29:14.426Z,102439.98
2019-03-21T14:31:38.847Z,102428.30
2019-03-21T14:34:03.293Z,102437.70
2019-03-21T14:36:27.707Z,102433.99
2019-03-21T14:38:52.141Z,102438.38
2019-03-21T14:41:16.640Z,102441.41
2019-03-21T14:43:41.075Z,102442.68
2019-03-21T14:46:05.572Z,102438.97
2019-03-21T14:48:30.123Z,102437.03
2019-03-21T14:50:54.561Z,102443.25
2019-03-21T14:53:28.420Z,102450.67
2019-03-21T14:55:47.652Z,102451.30
2019-03-21T14:58:11.299Z,102447.78
2019-03-21T15:00:35.813Z,102454.78
2019-03-21T15:03:00.270Z,102456.67
2019-03-21T15:05:24.723Z,102464.41
2019-03-21T15:07:49.341Z,102470.87
2019-03-21T15:10:16.391Z,102463.13
2019-03-21T15:12:40.983Z,102466.66
2019-03-21T15:15:07.957Z,102457.44
2019-03-21T15:17:32.385Z,102463.09
2019-03-21T15:19:56.892Z,102464.03
2019-03-21T15:22:21.369Z,102468.52
2019-03-21T15:24:46.003Z,102460.27
2019-03-21T15:27:10.489Z,102460.15
2019-03-21T15:29:35.535Z,102461.88
2019-03-21T15:32:00.345Z,102461.75
2019-03-21T15:34:24.786Z,102459.19
2019-03-21T15:36:49.191Z,102467.47
2019-03-21T15:39:13.790Z,102464.73
2019-03-21T15:41:38.702Z,102455.70
2019-03-21T15:44:03.308Z,102460.77
2019-03-21T15:46:27.736Z,102461.45
2019-03-21T15:48:52.223Z,102465.23
2019-03-21T15:51:16.676Z,102466.09
2019-03-21T15:53:53.249Z,102462.31
2019-03-21T15:56:07.268Z,102463.87
2019-03-21T15:58:31.684Z,102466.16
2019-03-21T16:00:56.122Z,102465.42
2019-03-21T16:03:20.988Z,102461.50
2019-03-21T16:05:45.426Z,102456.55
2019-03-21T16:08:10.093Z,102455.84
2019-03-21T16:10:34.649Z,102457.66
2019-03-21T16:12:59.071Z,102455.08
2019-03-21T16:15:23.528Z,102456.30
2019-03-21T16:17:47.935Z,102459.45
2019-03-21T16:20:12.517Z,102459.91
2019-03-21T16:22:37.071Z,102462.15
2019-03-21T16:25:01.490Z,102453.03
2019-03-21T16:27:25.958Z,102448.50
2019-03-21T16:29:50.342Z,102454.05
2019-03-21T16:32:14.775Z,102452.47
2019-03-21T16:34:39.180Z,102453.75
2019-03-21T16:37:03.689Z,102455.77
2019-03-21T16:39:28.113Z,102449.61
2019-03-21T16:41:52.613Z,102450.00
2019-03-21T16:44:17.041Z,102445.16
2019-03-21T16:46:41.470Z,102443.20
2019-03-21T16:49:05.959Z,102438.23
2019-03-21T16:51:30.397Z,102445.53
2019-03-21T16:53:54.811Z,102447.16
2019-03-21T16:56:19.312Z,102445.66
2019-03-21T16:58:43.723Z,102443.58
2019-03-21T17:01:08.166Z,102449.91
2019-03-21T17:03:32.591Z,102449.22
2019-03-21T17:05:57.036Z,102444.60
2019-03-21T17:08:21.463Z,102447.16
2019-03-21T17:10:45.963Z,102449.47
2019-03-21T17:13:10.378Z,102444.72
2019-03-21T17:15:34.800Z,102428.62
2019-03-21T17:17:59.281Z,102436.63
2019-03-21T17:20:23.698Z,102434.27
2019-03-21T17:22:48.199Z,102435.20
2019-03-21T17:25:13.187Z,102439.02
2019-03-21T17:27:37.701Z,102433.37
2019-03-21T17:30:02.203Z,102434.73
2019-03-21T17:32:26.707Z,102436.05
2019-03-21T17:34:51.159Z,102441.04
2019-03-21T17:37:15.614Z,102397.45
2019-03-21T17:39:40.025Z,102433.68
2019-03-21T17:42:04.610Z,102432.49
2019-03-21T17:44:29.035Z,102435.84
2019-03-21T17:46:53.534Z,102441.27
2019-03-21T17:49:17.957Z,102452.66
2019-03-21T17:51:42.368Z,102452.16
2019-03-21T17:54:06.816Z,102451.81
2019-03-21T17:56:31.302Z,102451.99
2019-03-21T17:58:55.854Z,102452.83
2019-03-21T18:01:20.499Z,102451.91
2019-03-21T18:03:45.026Z,102454.18
2019-03-21T18:06:09.500Z,102456.38
2019-03-21T18:08:34.016Z,102461.16
2019-03-21T18:10:58.419Z,102469.11
2019-03-21T18:13:22.844Z,102458.44
2019-03-21T18:15:47.340Z,102463.25
2019-03-21T18:18:11.780Z,102464.81
2019-03-21T18:20:36.219Z,102466.34
2019-03-21T18:23:00.793Z,102463.61
2019-03-21T18:25:25.345Z,102463.94
2019-03-21T18:27:49.843Z,102469.66
2019-03-21T18:30:15.048Z,102472.42
2019-03-21T18:32:39.457Z,102465.64
2019-03-21T18:35:05.744Z,102465.72
2019-03-21T18:37:30.158Z,102468.94
2019-03-21T18:39:55.489Z,102474.59
2019-03-21T18:42:19.918Z,102476.53
2019-03-21T18:44:44.390Z,102475.47
2019-03-21T18:47:08.906Z,102477.61
2019-03-21T18:49:33.422Z,102474.52
2019-03-21T18:51:57.915Z,102476.06
2019-03-21T18:54:22.393Z,102484.39
2019-03-21T18:56:46.821Z,102495.40
2019-03-21T18:59:11.279Z,102490.92
2019-03-21T19:01:35.757Z,102489.52
2019-03-21T19:04:00.201Z,102484.75
2019-03-21T19:06:24.609Z,102487.11
2019-03-21T19:08:49.058Z,102489.16
2019-03-21T19:11:13.473Z,102491.53
2019-03-21T19:13:37.942Z,102499.74
2019-03-21T19:16:02.339Z,102497.13
2019-03-21T19:18:26.804Z,102497.33
2019-03-21T19:20:51.325Z,102494.86
2019-03-21T19:23:15.737Z,102495.45
2019-03-21T19:25:40.186Z,102486.86
2019-03-21T19:28:04.750Z,102484.91
2019-03-21T19:30:29.276Z,102483.16
2019-03-21T19:32:53.699Z,102475.83
2019-03-21T19:35:18.220Z,102478.50
2019-03-21T19:37:42.635Z,102482.48
2019-03-21T19:40:09.859Z,102471.41
2019-03-21T19:42:34.342Z,102470.86
2019-03-21T19:44:58.848Z,102472.42
2019-03-21T19:47:29.862Z,102477.75
2019-03-21T19:49:49.429Z,102472.30
2019-03-21T19:52:14.150Z,102467.56
2019-03-21T19:54:38.656Z,102471.45
2019-03-21T19:57:03.081Z,102480.66
2019-03-21T19:59:27.495Z,102483.45
2019-03-21T20:01:52.017Z,102482.95
2019-03-21T20:04:16.425Z,102479.16
2019-03-21T20:06:40.871Z,102482.89
2019-03-21T20:09:07.433Z,102489.86
2019-03-21T20:11:31.960Z,102486.66
2019-03-21T20:13:56.448Z,102497.84
2019-03-21T20:16:21.041Z,102491.28
2019-03-21T20:18:45.484Z,102498.31
2019-03-21T20:21:10.014Z,102495.53
2019-03-21T20:23:34.443Z,102492.98
2019-03-21T20:25:59.668Z,102494.78
2019-03-21T20:28:24.105Z,102497.16
2019-03-21T20:30:48.547Z,102499.58
2019-03-21T20:33:12.984Z,102502.52
2019-03-21T20:35:37.438Z,102497.58
2019-03-21T20:38:01.929Z,102500.36
2019-03-21T20:40:26.353Z,102501.16
2019-03-21T20:42:50.830Z,102501.14
2019-03-21T20:45:16.680Z,102474.48
2019-03-21T20:47:41.198Z,102508.48
2019-03-21T20:50:06.571Z,102509.69
2019-03-21T20:52:30.991Z,102508.69
2019-03-21T20:54:55.408Z,102518.23
2019-03-21T20:57:19.839Z,102518.23
2019-03-21T20:59:44.250Z,102517.64
2019-03-21T21:02:08.750Z,102516.07
2019-03-21T21:04:33.227Z,102523.41
2019-03-21T21:06:57.658Z,102521.63
2019-03-21T21:09:22.072Z,102518.63
2019-03-21T21:11:46.490Z,102516.23
2019-03-21T21:14:10.889Z,102519.80
2019-03-21T21:16:35.322Z,102526.56
2019-03-21T21:18:59.723Z,102530.33
2019-03-21T21:21:24.184Z,102534.89
2019-03-21T21:23:48.613Z,102524.95
2019-03-21T21:26:13.103Z,102523.14
2019-03-21T21:28:37.560Z,102522.50
2019-03-21T21:31:02.005Z,102522.90
2019-03-21T21:33:26.484Z,102525.73
2019-03-21T21:35:50.898Z,102526.86
2019-03-21T21:38:15.411Z,102527.05
2019-03-21T21:40:39.822Z,102536.58
2019-03-21T21:43:04.405Z,102533.18
2019-03-21T21:45:28.828Z,102528.77
2019-03-21T21:47:53.337Z,102530.56
2019-03-21T21:50:18.557Z,102533.08
2019-03-21T21:52:43.039Z,102537.16
2019-03-21T21:55:08.808Z,102534.95
2019-03-21T21:57:33.262Z,102490.67
2019-03-21T21:59:57.689Z,102537.86
2019-03-21T22:02:22.218Z,102533.16
2019-03-21T22:04:46.642Z,102529.86
2019-03-21T22:07:11.069Z,102533.05
2019-03-21T22:09:35.509Z,102542.42
2019-03-21T22:11:59.936Z,102526.44
2019-03-21T22:14:24.388Z,102520.26
2019-03-21T22:16:48.806Z,102519.79
2019-03-21T22:19:13.239Z,102514.34
2019-03-21T22:21:37.686Z,102519.34
2019-03-21T22:24:02.119Z,102527.09
2019-03-21T22:26:30.066Z,102521.98
2019-03-21T22:28:54.681Z,102518.44
2019-03-21T22:31:19.099Z,102522.05
2019-03-21T22:33:43.560Z,102521.82
2019-03-21T22:36:08.039Z,102513.02
2019-03-21T22:38:32.557Z,102519.67
2019-03-21T22:40:56.969Z,102517.31
2019-03-21T22:43:21.387Z,102522.27
2019-03-21T22:45:45.834Z,102527.25
2019-03-21T22:48:10.336Z,102515.83
2019-03-21T22:50:34.775Z,102516.49
2019-03-21T22:52:59.260Z,102515.65
2019-03-21T22:55:23.709Z,102513.59
2019-03-21T22:57:48.300Z,102508.97
2019-03-21T23:00:18.187Z,102509.37
2019-03-21T23:02:42.589Z,102506.50
2019-03-21T23:05:07.895Z,102505.16
2019-03-21T23:07:32.308Z,102502.62
2019-03-21T23:09:56.764Z,102502.58
2019-03-21T23:12:21.298Z,102498.54
2019-03-21T23:14:45.735Z,102497.38
2019-03-21T23:17:10.155Z,102492.54
2019-03-21T23:19:34.583Z,102495.66
2019-03-21T23:21:59.097Z,102491.14
2019-03-21T23:24:23.611Z,102496.80
2019-03-21T23:26:52.925Z,102497.52
2019-03-21T23:29:14.246Z,102492.78
2019-03-21T23:31:38.654Z,102499.31
2019-03-21T23:34:03.098Z,102506.38
2019-03-21T23:36:27.579Z,102501.03
2019-03-21T23:38:52.026Z,102490.36
2019-03-21T23:41:16.510Z,102500.63
2019-03-21T23:43:40.927Z,102505.20
2019-03-21T23:46:05.354Z,102506.31
2019-03-21T23:48:29.768Z,102506.72
2019-03-21T23:50:54.276Z,102510.19
2019-03-21T23:53:18.705Z,102509.99
2019-03-21T23:55:43.209Z,102507.56
2019-03-21T23:58:07.623Z,102508.73
